createdAt,value
2023-04-09T00:01:08.849Z,82.00
2023-04-09T00:03:36.771Z,82.60
2023-04-09T00:06:04.826Z,83.50
2023-04-09T00:08:31.748Z,84.10
2023-04-09T00:10:59.398Z,84.70
2023-04-09T00:13:38.660Z,85.10
2023-04-09T00:16:07.085Z,85.40
2023-04-09T00:18:34.297Z,85.80
2023-04-09T00:21:01.208Z,86.30
2023-04-09T00:23:28.209Z,86.60
2023-04-09T00:25:55.343Z,87.00
2023-04-09T00:28:22.302Z,87.50
2023-04-09T00:30:49.349Z,87.60
2023-04-09T00:33:16.244Z,87.60
2023-04-09T00:35:43.282Z,87.60
2023-04-09T00:38:10.432Z,87.70
2023-04-09T00:40:37.421Z,87.60
2023-04-09T00:43:04.520Z,87.70
2023-04-09T00:45:31.920Z,87.90
2023-04-09T00:47:59.092Z,88.20
2023-04-09T00:50:26.128Z,88.60
2023-04-09T00:52:53.092Z,88.80
2023-04-09T00:55:22.456Z,89.30
2023-04-09T00:57:49.879Z,89.70
2023-04-09T01:00:17.014Z,90.00
2023-04-09T01:02:45.000Z,90.10
2023-04-09T01:05:13.048Z,90.20
2023-04-09T01:08:11.506Z,90.20
2023-04-09T01:10:44.738Z,90.40
2023-04-09T01:13:39.715Z,90.30
2023-04-09T01:16:10.721Z,90.30
2023-04-09T01:18:56.598Z,90.10
2023-04-09T01:21:27.980Z,90.20
2023-04-09T01:24:13.525Z,90.10
2023-04-09T01:27:06.081Z,90.10
2023-04-09T01:29:46.334Z,90.20
2023-04-09T01:32:16.640Z,90.10
2023-04-09T01:34:47.733Z,89.70
2023-04-09T01:37:16.911Z,89.30
2023-04-09T01:39:44.410Z,89.00
2023-04-09T01:42:12.686Z,88.90
2023-04-09T01:44:41.104Z,88.80
2023-04-09T01:47:08.973Z,88.50
2023-04-09T01:49:37.673Z,88.40
2023-04-09T01:52:05.272Z,88.30
2023-04-09T01:54:33.029Z,87.80
2023-04-09T01:57:00.020Z,87.20
2023-04-09T01:59:27.028Z,86.90
2023-04-09T02:02:01.334Z,87.30
2023-04-09T02:04:35.607Z,87.20
2023-04-09T02:07:10.140Z,87.20
2023-04-09T02:09:39.342Z,87.10
2023-04-09T02:12:14.357Z,87.10
2023-04-09T02:14:42.644Z,86.90
2023-04-09T02:17:11.354Z,86.80
2023-04-09T02:19:46.606Z,86.70
2023-04-09T02:22:15.092Z,87.20
2023-04-09T02:24:42.129Z,87.40
2023-04-09T02:27:09.114Z,87.30
2023-04-09T02:29:37.366Z,88.00
2023-04-09T02:32:04.432Z,87.10
2023-04-09T02:34:31.518Z,86.90
2023-04-09T02:36:58.509Z,86.70
2023-04-09T02:39:25.498Z,86.70
2023-04-09T02:41:52.769Z,86.70
2023-04-09T02:44:19.744Z,86.70
2023-04-09T02:46:47.515Z,86.50
2023-04-09T02:49:14.589Z,86.30
2023-04-09T02:51:41.698Z,86.20
2023-04-09T02:54:08.714Z,86.00
2023-04-09T02:56:35.766Z,85.90
2023-04-09T02:59:02.797Z,85.90
2023-04-09T03:01:29.797Z,86.00
2023-04-09T03:03:56.965Z,86.30
2023-04-09T03:06:23.888Z,86.40
2023-04-09T03:08:51.581Z,86.40
2023-04-09T03:11:22.062Z,86.50
2023-04-09T03:13:49.091Z,86.50
2023-04-09T03:16:16.111Z,86.50
2023-04-09T03:18:43.798Z,86.50
2023-04-09T03:21:11.622Z,86.60
2023-04-09T03:23:47.063Z,86.70
2023-04-09T03:26:14.205Z,86.80
2023-04-09T03:28:47.961Z,86.90
2023-04-09T03:31:14.993Z,86.70
2023-04-09T03:33:43.389Z,86.70
2023-04-09T03:36:11.454Z,87.00
2023-04-09T03:38:56.837Z,87.30
2023-04-09T03:41:29.657Z,87.50
2023-04-09T03:43:59.104Z,88.00
2023-04-09T03:46:31.673Z,88.50
2023-04-09T03:49:00.651Z,89.00
2023-04-09T03:51:36.661Z,89.30
2023-04-09T03:54:04.577Z,89.40
2023-04-09T03:56:32.020Z,89.40
2023-04-09T03:58:58.949Z,89.60
2023-04-09T04:01:35.204Z,89.60
2023-04-09T04:04:02.954Z,89.40
2023-04-09T04:06:37.316Z,89.40
2023-04-09T04:09:33.365Z,89.20
2023-04-09T04:12:05.365Z,89.10
2023-04-09T04:14:55.071Z,89.70
2023-04-09T04:17:31.924Z,88.70
2023-04-09T04:20:00.404Z,88.50
2023-04-09T04:22:27.655Z,88.70
2023-04-09T04:24:58.822Z,89.60
2023-04-09T04:27:25.957Z,89.00
2023-04-09T04:29:54.170Z,89.10
2023-04-09T04:32:33.332Z,89.10
2023-04-09T04:35:05.288Z,88.90
2023-04-09T04:37:32.596Z,88.80
2023-04-09T04:40:05.423Z,88.70
2023-04-09T04:42:36.185Z,88.50
2023-04-09T04:45:10.314Z,88.30
2023-04-09T04:47:45.956Z,88.00
2023-04-09T04:50:14.074Z,87.80
2023-04-09T04:52:53.261Z,87.60
2023-04-09T04:55:22.889Z,87.30
2023-04-09T04:57:52.626Z,87.00
2023-04-09T05:00:23.310Z,86.90
2023-04-09T05:02:50.994Z,86.50
2023-04-09T05:05:24.330Z,86.30
2023-04-09T05:07:56.616Z,86.00
2023-04-09T05:10:23.989Z,85.70
2023-04-09T05:12:51.022Z,85.40
2023-04-09T05:15:26.298Z,85.40
2023-04-09T05:17:53.474Z,85.30
2023-04-09T05:20:20.543Z,85.20
2023-04-09T05:23:01.937Z,85.00
2023-04-09T05:25:33.226Z,85.00
2023-04-09T05:28:02.009Z,84.80
2023-04-09T05:30:30.718Z,84.70
2023-04-09T05:33:01.329Z,84.40
2023-04-09T05:35:28.964Z,84.10
2023-04-09T05:37:56.304Z,83.90
2023-04-09T05:40:23.352Z,83.70
2023-04-09T05:42:52.350Z,83.50
2023-04-09T05:45:32.431Z,83.90
2023-04-09T05:47:59.566Z,82.70
2023-04-09T05:50:26.738Z,82.20
2023-04-09T05:52:55.231Z,82.30
2023-04-09T05:55:27.574Z,80.80
2023-04-09T05:57:58.989Z,79.40
2023-04-09T06:00:26.728Z,77.80
2023-04-09T06:02:53.725Z,76.80
2023-04-09T06:05:20.782Z,73.90
2023-04-09T06:07:48.268Z,70.20
2023-04-09T06:10:15.519Z,68.10
2023-04-09T06:12:42.601Z,66.40
2023-04-09T06:15:09.980Z,65.10
2023-04-09T06:17:36.942Z,63.00
2023-04-09T06:20:04.259Z,60.70
2023-04-09T06:22:31.203Z,58.40
2023-04-09T06:24:58.124Z,56.00
2023-04-09T06:27:25.175Z,54.20
2023-04-09T06:29:52.117Z,52.40
2023-04-09T06:32:19.060Z,50.80
2023-04-09T06:34:46.210Z,49.60
2023-04-09T06:37:13.048Z,48.50
2023-04-09T06:39:44.708Z,47.50
2023-04-09T06:42:14.460Z,46.20
2023-04-09T06:44:51.600Z,45.40
2023-04-09T06:47:18.434Z,44.30
2023-04-09T06:49:45.488Z,43.50
2023-04-09T06:52:12.287Z,42.30
2023-04-09T06:54:39.112Z,41.20
2023-04-09T06:57:06.665Z,40.30
2023-04-09T06:59:33.931Z,39.40
2023-04-09T07:02:01.005Z,38.30
2023-04-09T07:04:28.062Z,38.10
2023-04-09T07:06:59.456Z,38.30
2023-04-09T07:09:26.285Z,36.50
2023-04-09T07:11:53.094Z,36.70
2023-04-09T07:14:19.908Z,36.70
2023-04-09T07:16:46.689Z,37.80
2023-04-09T07:19:13.523Z,38.20
2023-04-09T07:21:40.353Z,37.70
2023-04-09T07:24:07.287Z,40.20
2023-04-09T07:26:34.078Z,41.50
2023-04-09T07:29:00.975Z,42.30
2023-04-09T07:31:27.863Z,41.60
2023-04-09T07:33:54.877Z,42.80
2023-04-09T07:36:21.950Z,43.10
2023-04-09T07:38:48.762Z,42.60
2023-04-09T07:41:15.932Z,43.10
2023-04-09T07:43:43.096Z,42.50
2023-04-09T07:46:09.959Z,43.80
2023-04-09T07:48:36.761Z,45.30
2023-04-09T07:51:04.554Z,46.70
2023-04-09T07:53:31.396Z,47.00
2023-04-09T07:55:58.266Z,47.70
2023-04-09T07:58:25.082Z,47.30
2023-04-09T08:00:51.934Z,46.00
2023-04-09T08:03:19.579Z,43.90
2023-04-09T08:05:46.836Z,42.90
2023-04-09T08:08:13.730Z,43.20
2023-04-09T08:10:40.696Z,43.70
2023-04-09T08:13:08.301Z,44.80
2023-04-09T08:15:36.176Z,43.90
2023-04-09T08:18:04.344Z,41.70
2023-04-09T08:20:33.053Z,41.20
2023-04-09T08:22:59.868Z,42.60
2023-04-09T08:25:29.676Z,43.90
2023-04-09T08:27:56.970Z,45.40
2023-04-09T08:30:23.777Z,46.70
2023-04-09T08:32:50.595Z,47.60
2023-04-09T08:35:17.525Z,48.40
2023-04-09T08:37:44.384Z,49.00
2023-04-09T08:40:11.829Z,49.60
2023-04-09T08:42:44.226Z,49.90
2023-04-09T08:45:11.739Z,50.10
2023-04-09T08:47:40.043Z,50.70
2023-04-09T08:50:08.376Z,50.40
2023-04-09T08:52:35.323Z,50.50
2023-04-09T08:55:02.291Z,50.70
2023-04-09T08:57:29.278Z,50.70
2023-04-09T08:59:56.463Z,50.80
2023-04-09T09:02:24.673Z,51.20
2023-04-09T09:04:53.515Z,51.80
2023-04-09T09:07:20.428Z,51.90
2023-04-09T09:09:54.021Z,51.80
2023-04-09T09:12:32.746Z,51.70
2023-04-09T09:14:59.860Z,50.80
2023-04-09T09:17:26.776Z,50.00
2023-04-09T09:19:53.815Z,47.90
2023-04-09T09:22:20.634Z,47.20
2023-04-09T09:24:50.302Z,47.60
2023-04-09T09:27:33.342Z,48.20
2023-04-09T09:30:01.381Z,48.80
2023-04-09T09:32:28.262Z,49.20
2023-04-09T09:34:59.412Z,49.50
2023-04-09T09:37:27.153Z,50.00
2023-04-09T09:39:54.373Z,50.10
2023-04-09T09:42:21.265Z,50.20
2023-04-09T09:44:48.426Z,50.90
2023-04-09T09:47:15.790Z,51.10
2023-04-09T09:49:42.614Z,51.40
2023-04-09T09:52:10.427Z,51.60
2023-04-09T09:54:42.240Z,51.90
2023-04-09T09:57:15.509Z,52.30
2023-04-09T09:59:47.686Z,52.50
2023-04-09T10:02:23.070Z,52.90
2023-04-09T10:04:52.979Z,52.80
2023-04-09T10:07:21.292Z,52.60
2023-04-09T10:09:49.772Z,52.10
2023-04-09T10:12:16.850Z,51.90
2023-04-09T10:14:43.769Z,52.40
2023-04-09T10:17:10.633Z,52.60
2023-04-09T10:19:47.250Z,52.80
2023-04-09T10:22:18.047Z,52.90
2023-04-09T10:24:45.059Z,52.50
2023-04-09T10:27:16.972Z,52.70
2023-04-09T10:29:47.705Z,52.80
2023-04-09T10:32:35.102Z,52.40
2023-04-09T10:35:04.158Z,51.80
2023-04-09T10:37:31.820Z,51.20
2023-04-09T10:39:58.843Z,51.30
2023-04-09T10:42:41.031Z,51.20
2023-04-09T10:45:12.146Z,51.30
2023-04-09T10:47:40.114Z,51.90
2023-04-09T10:50:17.087Z,50.70
2023-04-09T10:52:44.482Z,47.60
2023-04-09T10:55:40.907Z,46.30
2023-04-09T10:58:11.324Z,46.50
2023-04-09T11:00:43.832Z,45.40
2023-04-09T11:03:27.643Z,44.00
2023-04-09T11:06:09.464Z,43.00
2023-04-09T11:08:38.497Z,42.70
2023-04-09T11:11:06.010Z,43.50
2023-04-09T11:13:34.261Z,45.00
2023-04-09T11:16:03.430Z,45.90
2023-04-09T11:18:30.761Z,46.60
2023-04-09T11:20:59.922Z,46.70
2023-04-09T11:23:27.077Z,47.20
2023-04-09T11:25:54.751Z,47.60
2023-04-09T11:28:22.019Z,48.10
2023-04-09T11:30:50.876Z,48.70
2023-04-09T11:33:19.797Z,49.30
2023-04-09T11:35:47.491Z,50.00
2023-04-09T11:38:14.415Z,50.40
2023-04-09T11:40:48.094Z,50.80
2023-04-09T11:43:20.904Z,51.30
2023-04-09T11:45:48.710Z,51.70
2023-04-09T11:48:18.391Z,51.90
2023-04-09T11:50:47.385Z,51.60
2023-04-09T11:53:21.105Z,51.30
2023-04-09T11:55:50.827Z,50.90
2023-04-09T11:58:18.423Z,50.60
2023-04-09T12:00:45.738Z,50.50
2023-04-09T12:03:12.917Z,50.10
2023-04-09T12:05:47.869Z,49.00
2023-04-09T12:08:22.463Z,48.50
2023-04-09T12:10:50.136Z,48.40
2023-04-09T12:13:18.284Z,48.80
2023-04-09T12:15:45.535Z,48.10
2023-04-09T12:18:14.270Z,46.70
2023-04-09T12:20:45.044Z,45.50
2023-04-09T12:23:12.500Z,46.70
2023-04-09T12:25:40.720Z,44.00
2023-04-09T12:28:08.697Z,40.90
2023-04-09T12:30:36.865Z,39.00
2023-04-09T12:33:04.350Z,37.30
2023-04-09T12:35:31.887Z,36.50
2023-04-09T12:37:59.510Z,35.80
2023-04-09T12:40:26.555Z,36.00
2023-04-09T12:42:53.990Z,35.10
2023-04-09T12:45:21.263Z,35.20
2023-04-09T12:47:48.295Z,34.30
2023-04-09T12:50:16.300Z,33.90
2023-04-09T12:52:43.756Z,34.00
2023-04-09T12:55:11.190Z,33.80
2023-04-09T12:57:39.615Z,33.20
2023-04-09T13:00:07.796Z,33.80
2023-04-09T13:02:35.141Z,34.40
2023-04-09T13:05:02.426Z,34.70
2023-04-09T13:07:29.444Z,35.80
2023-04-09T13:09:56.637Z,36.10
2023-04-09T13:12:23.634Z,35.70
2023-04-09T13:14:50.962Z,34.90
2023-04-09T13:17:17.813Z,35.60
2023-04-09T13:19:44.787Z,36.80
2023-04-09T13:22:11.666Z,38.30
2023-04-09T13:24:38.991Z,39.60
2023-04-09T13:27:06.654Z,41.00
2023-04-09T13:29:33.555Z,41.50
2023-04-09T13:32:05.750Z,42.20
2023-04-09T13:34:33.164Z,42.90
2023-04-09T13:36:59.960Z,43.60
2023-04-09T13:39:26.844Z,43.90
2023-04-09T13:41:55.306Z,44.30
2023-04-09T13:44:22.524Z,44.40
2023-04-09T13:46:49.407Z,44.30
2023-04-09T13:49:16.650Z,44.40
2023-04-09T13:51:43.641Z,44.00
2023-04-09T13:54:11.311Z,43.70
2023-04-09T13:56:38.726Z,43.50
2023-04-09T13:59:06.503Z,43.50
2023-04-09T14:01:33.943Z,43.50
2023-04-09T14:04:00.939Z,43.40
2023-04-09T14:06:28.041Z,43.30
2023-04-09T14:08:55.295Z,43.80
2023-04-09T14:11:22.340Z,44.10
2023-04-09T14:13:49.444Z,44.40
2023-04-09T14:16:16.534Z,44.90
2023-04-09T14:18:43.370Z,46.00
2023-04-09T14:21:10.525Z,46.60
2023-04-09T14:23:38.788Z,47.40
2023-04-09T14:26:06.081Z,47.80
2023-04-09T14:28:33.213Z,48.00
2023-04-09T14:31:00.177Z,48.20
2023-04-09T14:33:27.109Z,48.50
2023-04-09T14:35:53.898Z,49.10
2023-04-09T14:38:20.793Z,49.60
2023-04-09T14:40:47.661Z,50.00
2023-04-09T14:43:14.571Z,50.50
2023-04-09T14:45:41.446Z,51.50
2023-04-09T14:48:08.739Z,52.10
2023-04-09T14:50:36.730Z,53.60
2023-04-09T14:53:03.909Z,54.50
2023-04-09T14:55:30.943Z,56.50
2023-04-09T14:57:59.031Z,57.00
2023-04-09T15:00:26.045Z,58.50
2023-04-09T15:02:53.129Z,59.20
2023-04-09T15:05:20.182Z,59.60
2023-04-09T15:07:47.298Z,59.50
2023-04-09T15:10:14.231Z,59.60
2023-04-09T15:12:41.129Z,60.10
2023-04-09T15:15:08.839Z,60.80
2023-04-09T15:17:35.899Z,60.90
2023-04-09T15:20:03.482Z,60.90
2023-04-09T15:22:30.289Z,61.30
2023-04-09T15:24:57.122Z,61.90
2023-04-09T15:27:24.053Z,62.70
2023-04-09T15:29:50.992Z,63.00
2023-04-09T15:32:17.980Z,62.90
2023-04-09T15:34:44.851Z,62.90
2023-04-09T15:37:11.672Z,62.90
2023-04-09T15:39:38.608Z,62.80
2023-04-09T15:42:06.324Z,62.50
2023-04-09T15:44:36.206Z,62.30
2023-04-09T15:47:03.105Z,62.20
2023-04-09T15:49:29.985Z,62.50
2023-04-09T15:51:56.818Z,62.50
2023-04-09T15:54:23.640Z,63.30
2023-04-09T15:56:50.471Z,64.50
2023-04-09T15:59:18.944Z,64.90
2023-04-09T16:01:45.977Z,65.30
2023-04-09T16:04:12.982Z,66.30
2023-04-09T16:06:40.131Z,67.30
2023-04-09T16:09:07.341Z,68.20
2023-04-09T16:11:36.330Z,69.30
2023-04-09T16:14:03.855Z,69.80
2023-04-09T16:16:30.818Z,69.60
2023-04-09T16:18:57.904Z,69.90
2023-04-09T16:21:24.839Z,70.00
2023-04-09T16:23:51.843Z,70.40
2023-04-09T16:26:19.017Z,70.00
2023-04-09T16:28:46.125Z,69.80
2023-04-09T16:31:13.264Z,70.00
2023-04-09T16:33:40.255Z,70.10
2023-04-09T16:36:07.658Z,70.10
2023-04-09T16:38:34.741Z,70.30
2023-04-09T16:41:01.701Z,70.60
2023-04-09T16:43:29.803Z,71.10
2023-04-09T16:45:57.170Z,71.10
2023-04-09T16:48:24.231Z,71.10
2023-04-09T16:50:51.221Z,71.10
2023-04-09T16:53:18.239Z,71.20
2023-04-09T16:55:45.581Z,71.20
2023-04-09T16:58:12.656Z,71.40
2023-04-09T17:00:40.144Z,71.40
2023-04-09T17:03:07.410Z,71.40
2023-04-09T17:05:34.826Z,71.40
2023-04-09T17:08:01.854Z,71.40
2023-04-09T17:10:28.930Z,71.30
2023-04-09T17:12:56.433Z,71.10
2023-04-09T17:15:25.105Z,70.90
2023-04-09T17:17:53.669Z,70.80
2023-04-09T17:20:22.726Z,70.70
2023-04-09T17:22:49.815Z,70.40
2023-04-09T17:25:17.103Z,70.20
2023-04-09T17:27:45.480Z,70.10
2023-04-09T17:30:12.647Z,70.00
2023-04-09T17:32:40.486Z,69.80
2023-04-09T17:35:08.238Z,69.50
2023-04-09T17:37:38.594Z,69.40
2023-04-09T17:40:06.605Z,69.20
2023-04-09T17:42:33.659Z,68.50
2023-04-09T17:45:00.940Z,67.80
2023-04-09T17:47:27.988Z,67.40
2023-04-09T17:49:54.973Z,67.10
2023-04-09T17:52:22.498Z,66.80
2023-04-09T17:54:50.904Z,66.60
2023-04-09T17:57:18.491Z,66.50
2023-04-09T17:59:45.512Z,66.50
2023-04-09T18:02:12.797Z,66.40
2023-04-09T18:04:40.303Z,66.60
2023-04-09T18:07:07.869Z,67.00
2023-04-09T18:09:34.846Z,67.60
2023-04-09T18:12:02.736Z,68.20
2023-04-09T18:14:32.397Z,68.80
2023-04-09T18:16:59.749Z,69.30
2023-04-09T18:19:26.685Z,70.00
2023-04-09T18:21:53.630Z,70.40
2023-04-09T18:24:20.579Z,70.70
2023-04-09T18:26:47.578Z,71.00
2023-04-09T18:29:14.661Z,71.30
2023-04-09T18:31:41.678Z,71.40
2023-04-09T18:34:08.707Z,71.50
2023-04-09T18:36:35.772Z,71.50
2023-04-09T18:39:04.948Z,71.60
2023-04-09T18:41:32.334Z,71.90
2023-04-09T18:43:59.459Z,71.90
2023-04-09T18:46:26.957Z,72.00
2023-04-09T18:48:54.072Z,72.20
2023-04-09T18:51:21.525Z,72.40
2023-04-09T18:53:52.923Z,72.60
2023-04-09T18:56:21.134Z,72.70
2023-04-09T18:58:48.650Z,72.90
2023-04-09T19:01:17.481Z,72.90
2023-04-09T19:03:46.230Z,73.10
2023-04-09T19:06:17.650Z,73.30
2023-04-09T19:08:50.118Z,73.60
2023-04-09T19:11:17.225Z,74.00
2023-04-09T19:13:44.148Z,74.00
2023-04-09T19:16:11.426Z,74.20
2023-04-09T19:18:38.690Z,74.30
2023-04-09T19:21:07.509Z,74.40
2023-04-09T19:23:34.885Z,74.50
2023-04-09T19:26:02.800Z,74.60
2023-04-09T19:28:29.801Z,74.70
2023-04-09T19:30:59.611Z,74.80
2023-04-09T19:33:27.844Z,74.90
2023-04-09T19:35:55.890Z,74.90
2023-04-09T19:38:23.188Z,74.90
2023-04-09T19:40:50.171Z,74.70
2023-04-09T19:43:17.187Z,74.70
2023-04-09T19:45:44.458Z,74.70
2023-04-09T19:48:12.540Z,74.70
2023-04-09T19:50:46.500Z,74.70
2023-04-09T19:53:13.748Z,74.60
2023-04-09T19:55:41.265Z,74.30
2023-04-09T19:58:08.247Z,74.00
2023-04-09T20:00:35.703Z,73.80
2023-04-09T20:03:03.231Z,73.30
2023-04-09T20:05:30.411Z,73.00
2023-04-09T20:07:57.499Z,72.70
2023-04-09T20:10:24.597Z,72.60
2023-04-09T20:12:52.100Z,72.50
2023-04-09T20:15:22.268Z,72.50
2023-04-09T20:17:50.586Z,72.70
2023-04-09T20:20:20.550Z,72.70
2023-04-09T20:22:55.554Z,72.70
2023-04-09T20:25:23.706Z,72.60
2023-04-09T20:27:53.310Z,72.60
2023-04-09T20:30:20.746Z,72.70
2023-04-09T20:32:49.087Z,72.70
2023-04-09T20:35:16.939Z,72.80
2023-04-09T20:37:44.187Z,72.70
2023-04-09T20:40:14.238Z,72.60
2023-04-09T20:42:41.625Z,72.40
2023-04-09T20:45:09.683Z,72.50
2023-04-09T20:47:36.875Z,72.50
2023-04-09T20:50:05.145Z,72.50
2023-04-09T20:52:32.456Z,72.50
2023-04-09T20:54:59.822Z,72.50
2023-04-09T20:57:27.321Z,72.40
2023-04-09T20:59:54.451Z,72.40
2023-04-09T21:02:21.978Z,72.50
2023-04-09T21:04:49.064Z,72.40
2023-04-09T21:07:16.225Z,72.40
2023-04-09T21:09:43.173Z,72.40
2023-04-09T21:12:10.352Z,72.80
2023-04-09T21:14:37.379Z,72.40
2023-04-09T21:17:04.395Z,72.30
2023-04-09T21:19:31.549Z,72.30
2023-04-09T21:21:58.612Z,72.40
2023-04-09T21:24:26.903Z,72.60
2023-04-09T21:26:53.867Z,72.80
2023-04-09T21:29:21.790Z,72.90
2023-04-09T21:31:49.295Z,72.80
2023-04-09T21:34:16.397Z,72.80
2023-04-09T21:36:45.239Z,72.90
2023-04-09T21:39:12.678Z,73.10
2023-04-09T21:41:39.702Z,73.40
2023-04-09T21:44:09.305Z,73.70
2023-04-09T21:46:37.370Z,74.10
2023-04-09T21:49:04.735Z,74.40
2023-04-09T21:51:32.313Z,74.90
2023-04-09T21:54:06.799Z,75.20
2023-04-09T21:56:34.472Z,75.60
2023-04-09T21:59:01.898Z,75.70
2023-04-09T22:01:31.257Z,76.00
2023-04-09T22:03:59.854Z,76.10
2023-04-09T22:06:28.767Z,76.20
2023-04-09T22:08:58.052Z,76.20
2023-04-09T22:11:29.765Z,76.40
2023-04-09T22:13:57.499Z,76.70
2023-04-09T22:16:25.543Z,77.00
2023-04-09T22:18:54.076Z,77.20
2023-04-09T22:21:21.609Z,77.50
2023-04-09T22:23:48.656Z,77.70
2023-04-09T22:26:15.792Z,77.70
2023-04-09T22:28:42.757Z,77.90
2023-04-09T22:31:09.747Z,78.00
2023-04-09T22:33:36.772Z,78.20
2023-04-09T22:36:03.899Z,78.40
2023-04-09T22:38:31.207Z,78.60
2023-04-09T22:40:58.139Z,78.80
2023-04-09T22:43:25.061Z,79.10
2023-04-09T22:45:56.112Z,78.90
2023-04-09T22:48:23.439Z,78.80
2023-04-09T22:50:51.175Z,78.60
2023-04-09T22:53:21.701Z,78.30
2023-04-09T22:55:52.521Z,78.10
2023-04-09T22:58:19.465Z,77.90
2023-04-09T23:00:47.548Z,77.60
2023-04-09T23:03:14.869Z,77.30
2023-04-09T23:05:42.251Z,77.10
2023-04-09T23:08:12.373Z,76.90
2023-04-09T23:10:39.291Z,76.80
2023-04-09T23:13:06.347Z,76.70
2023-04-09T23:15:33.254Z,76.70
2023-04-09T23:18:00.368Z,76.50
2023-04-09T23:20:27.318Z,76.50
2023-04-09T23:22:54.293Z,76.30
2023-04-09T23:25:22.518Z,76.20
2023-04-09T23:27:49.450Z,76.20
2023-04-09T23:30:17.133Z,76.10
2023-04-09T23:32:45.383Z,76.00
2023-04-09T23:35:12.768Z,76.10
2023-04-09T23:37:42.456Z,76.20
2023-04-09T23:40:10.602Z,76.20
2023-04-09T23:42:37.562Z,76.20
2023-04-09T23:45:06.248Z,76.20
2023-04-09T23:47:36.556Z,76.30
2023-04-09T23:50:07.526Z,76.40
2023-04-09T23:52:36.039Z,76.40
2023-04-09T23:55:04.460Z,76.40
2023-04-09T23:57:31.461Z,76.40
2023-04-09T23:59:58.846Z,76.30
